createdAt,value
2022-08-07T00:00:03.987Z,101091.00
2022-08-07T00:00:40.100Z,101091.00
2022-08-07T00:02:36.200Z,101089.00
2022-08-07T00:02:36.859Z,101089.00
2022-08-07T00:02:40.650Z,101087.00
2022-08-07T00:03:16.546Z,101092.00
2022-08-07T00:03:51.304Z,101092.00
2022-08-07T00:04:26.319Z,101093.00
2022-08-07T00:05:01.259Z,101093.00
2022-08-07T00:05:38.986Z,101093.00
2022-08-07T00:06:15.189Z,101092.00
2022-08-07T00:06:51.575Z,101091.00
2022-08-07T00:07:29.199Z,101093.00
2022-08-07T00:08:08.388Z,101089.00
2022-08-07T00:08:44.324Z,101089.00
2022-08-07T00:09:21.290Z,101087.00
2022-08-07T00:10:19.051Z,101087.00
2022-08-07T00:10:48.326Z,101087.00
2022-08-07T00:11:20.058Z,101086.00
2022-08-07T00:11:59.011Z,101091.00
2022-08-07T00:12:33.761Z,101088.00
2022-08-07T00:13:17.533Z,101090.00
2022-08-07T00:13:48.113Z,101090.00
2022-08-07T00:14:30.232Z,101091.00
2022-08-07T00:15:04.891Z,101090.00
2022-08-07T00:15:46.859Z,101087.00
2022-08-07T00:16:27.927Z,101093.00
2022-08-07T00:16:59.942Z,101090.00
2022-08-07T00:17:35.882Z,101092.00
2022-08-07T00:18:19.802Z,101089.00
2022-08-07T00:18:50.242Z,101092.00
2022-08-07T00:19:59.989Z,101089.00
2022-08-07T00:20:08.195Z,101091.00
2022-08-07T00:20:44.657Z,101092.00
2022-08-07T00:21:56.705Z,101093.00
2022-08-07T00:22:03.380Z,101088.00
2022-08-07T00:22:40.723Z,101083.00
2022-08-07T00:23:17.228Z,101088.00
2022-08-07T00:23:52.023Z,101082.00
2022-08-07T00:24:28.454Z,101085.00
2022-08-07T00:25:07.136Z,101085.00
2022-08-07T00:25:41.994Z,101080.00
2022-08-07T00:26:58.679Z,101088.00
2022-08-07T00:27:07.409Z,101080.00
2022-08-07T00:27:52.627Z,101085.00
2022-08-07T00:28:22.535Z,101081.00
2022-08-07T00:29:02.137Z,101083.00
2022-08-07T00:29:38.456Z,101086.00
2022-08-07T00:30:26.466Z,101087.00
2022-08-07T00:30:58.056Z,101087.00
2022-08-07T00:31:37.584Z,101086.00
2022-08-07T00:32:13.441Z,101089.00
2022-08-07T00:32:49.277Z,101088.00
2022-08-07T00:33:23.999Z,101086.00
2022-08-07T00:33:58.790Z,101086.00
2022-08-07T00:34:33.517Z,101084.00
2022-08-07T00:35:10.359Z,101084.00
2022-08-07T00:35:49.455Z,101084.00
2022-08-07T00:36:24.519Z,101084.00
2022-08-07T00:36:59.243Z,101086.00
2022-08-07T00:37:47.710Z,101085.00
2022-08-07T00:38:13.741Z,101083.00
2022-08-07T00:38:50.406Z,101084.00
2022-08-07T00:39:25.318Z,101088.00
2022-08-07T00:40:00.169Z,101086.00
2022-08-07T00:40:40.484Z,101086.00
2022-08-07T00:41:17.972Z,101086.00
2022-08-07T00:41:53.663Z,101085.00
2022-08-07T00:42:33.782Z,101083.00
2022-08-07T00:43:59.081Z,101084.00
2022-08-07T00:43:59.280Z,101084.00
2022-08-07T00:44:32.962Z,101082.00
2022-08-07T00:45:09.059Z,101080.00
2022-08-07T00:45:48.654Z,101079.00
2022-08-07T00:46:25.599Z,101079.00
2022-08-07T00:47:02.024Z,101082.00
2022-08-07T00:48:08.846Z,101079.00
2022-08-07T00:48:16.348Z,101079.00
2022-08-07T00:48:54.884Z,101074.00
2022-08-07T00:50:19.216Z,101076.00
2022-08-07T00:50:19.781Z,101076.00
2022-08-07T00:50:51.523Z,101073.00
2022-08-07T00:51:27.828Z,101074.00
2022-08-07T00:52:07.077Z,101075.00
2022-08-07T00:52:47.516Z,101073.00
2022-08-07T00:53:22.377Z,101077.00
2022-08-07T00:53:57.097Z,101073.00
2022-08-07T00:54:32.355Z,101072.00
2022-08-07T00:55:10.438Z,101074.00
2022-08-07T00:56:02.100Z,101071.00
2022-08-07T00:56:29.988Z,101073.00
2022-08-07T00:57:04.717Z,101074.00
2022-08-07T00:57:55.410Z,101071.00
2022-08-07T00:58:21.489Z,101074.00
2022-08-07T00:58:57.292Z,101076.00
2022-08-07T00:59:35.918Z,101073.00
2022-08-07T01:00:10.858Z,101073.00
2022-08-07T01:00:53.684Z,101071.00
2022-08-07T01:01:25.218Z,101074.00
2022-08-07T01:02:01.934Z,101073.00
2022-08-07T01:02:36.660Z,101071.00
2022-08-07T01:03:14.392Z,101072.00
2022-08-07T01:03:57.276Z,101075.00
2022-08-07T01:04:30.310Z,101072.00
2022-08-07T01:05:18.812Z,101072.00
2022-08-07T01:05:51.578Z,101070.00
2022-08-07T01:06:26.507Z,101071.00
2022-08-07T01:07:01.889Z,101069.00
2022-08-07T01:07:37.923Z,101069.00
2022-08-07T01:08:16.191Z,101065.00
2022-08-07T01:08:53.878Z,101060.00
2022-08-07T01:10:04.861Z,101061.00
2022-08-07T01:10:12.744Z,101061.00
2022-08-07T01:10:56.431Z,101062.00
2022-08-07T01:12:09.181Z,101062.00
2022-08-07T01:12:29.057Z,101063.00
2022-08-07T01:12:53.894Z,101057.00
2022-08-07T01:13:35.064Z,101062.00
2022-08-07T01:14:09.974Z,101061.00
2022-08-07T01:14:45.150Z,101061.00
2022-08-07T01:15:19.867Z,101059.00
2022-08-07T01:16:01.096Z,101062.00
2022-08-07T01:16:34.647Z,101062.00
2022-08-07T01:17:09.997Z,101062.00
2022-08-07T01:17:44.717Z,101061.00
2022-08-07T01:18:19.448Z,101066.00
2022-08-07T01:18:54.188Z,101062.00
2022-08-07T01:19:32.395Z,101061.00
2022-08-07T01:20:09.320Z,101062.00
2022-08-07T01:20:44.047Z,101061.00
2022-08-07T01:21:26.060Z,101064.00
2022-08-07T01:22:03.477Z,101061.00
2022-08-07T01:23:00.515Z,101062.00
2022-08-07T01:23:25.465Z,101061.00
2022-08-07T01:24:03.690Z,101062.00
2022-08-07T01:24:38.490Z,101062.00
2022-08-07T01:25:54.893Z,101063.00
2022-08-07T01:25:56.168Z,101064.00
2022-08-07T01:26:31.161Z,101064.00
2022-08-07T01:27:05.890Z,101064.00
2022-08-07T01:27:51.217Z,101063.00
2022-08-07T01:28:25.112Z,101063.00
2022-08-07T01:29:00.896Z,101061.00
2022-08-07T01:29:35.635Z,101060.00
2022-08-07T01:30:12.823Z,101063.00
2022-08-07T01:30:54.154Z,101060.00
2022-08-07T01:31:30.019Z,101056.00
2022-08-07T01:32:12.425Z,101057.00
2022-08-07T01:32:50.085Z,101055.00
2022-08-07T01:33:24.826Z,101056.00
2022-08-07T01:34:06.115Z,101059.00
2022-08-07T01:34:40.843Z,101057.00
2022-08-07T01:35:20.448Z,101060.00
2022-08-07T01:36:06.218Z,101058.00
2022-08-07T01:36:40.690Z,101058.00
2022-08-07T01:37:15.515Z,101057.00
2022-08-07T01:37:50.407Z,101059.00
2022-08-07T01:38:26.009Z,101059.00
2022-08-07T01:39:09.920Z,101058.00
2022-08-07T01:39:46.863Z,101062.00
2022-08-07T01:40:23.347Z,101059.00
2022-08-07T01:41:01.136Z,101061.00
2022-08-07T01:41:37.339Z,101063.00
2022-08-07T01:42:38.311Z,101057.00
2022-08-07T01:42:58.835Z,101057.00
2022-08-07T01:43:38.329Z,101057.00
2022-08-07T01:44:13.330Z,101056.00
2022-08-07T01:44:48.077Z,101054.00
2022-08-07T01:45:36.284Z,101056.00
2022-08-07T01:46:02.380Z,101053.00
2022-08-07T01:46:37.130Z,101055.00
2022-08-07T01:48:19.912Z,101054.00
2022-08-07T01:48:20.951Z,101053.00
2022-08-07T01:48:35.129Z,101051.00
2022-08-07T01:49:14.552Z,101055.00
2022-08-07T01:49:54.592Z,101055.00
2022-08-07T01:50:29.541Z,101056.00
2022-08-07T01:51:24.398Z,101053.00
2022-08-07T01:52:01.647Z,101053.00
2022-08-07T01:52:24.462Z,101051.00
2022-08-07T01:53:08.537Z,101051.00
2022-08-07T01:54:09.385Z,101050.00
2022-08-07T01:54:32.778Z,101049.00
2022-08-07T01:55:03.876Z,101053.00
2022-08-07T01:55:38.614Z,101052.00
2022-08-07T01:56:13.343Z,101051.00
2022-08-07T01:56:49.485Z,101046.00
2022-08-07T01:57:25.146Z,101047.00
2022-08-07T01:58:05.431Z,101050.00
2022-08-07T01:58:41.050Z,101052.00
2022-08-07T01:59:19.057Z,101048.00
2022-08-07T01:59:57.195Z,101049.00
2022-08-07T02:00:33.606Z,101047.00
2022-08-07T02:01:25.387Z,101045.00
2022-08-07T02:02:02.317Z,101046.00
2022-08-07T02:03:19.483Z,101050.00
2022-08-07T02:03:21.739Z,101049.00
2022-08-07T02:03:57.525Z,101045.00
2022-08-07T02:04:32.361Z,101045.00
2022-08-07T02:05:07.512Z,101048.00
2022-08-07T02:05:47.711Z,101043.00
2022-08-07T02:06:31.410Z,101043.00
2022-08-07T02:07:01.438Z,101046.00
2022-08-07T02:07:50.373Z,101040.00
2022-08-07T02:08:15.769Z,101039.00
2022-08-07T02:08:54.354Z,101044.00
2022-08-07T02:09:53.243Z,101042.00
2022-08-07T02:10:14.305Z,101040.00
2022-08-07T02:10:54.992Z,101041.00
2022-08-07T02:11:30.767Z,101040.00
2022-08-07T02:12:11.742Z,101039.00
2022-08-07T02:12:53.813Z,101038.00
2022-08-07T02:13:56.558Z,101034.00
2022-08-07T02:14:09.862Z,101039.00
2022-08-07T02:14:49.262Z,101040.00
2022-08-07T02:15:27.931Z,101043.00
2022-08-07T02:16:02.892Z,101035.00
2022-08-07T02:16:42.292Z,101041.00
2022-08-07T02:17:27.484Z,101044.00
2022-08-07T02:17:56.763Z,101042.00
2022-08-07T02:18:31.485Z,101036.00
2022-08-07T02:20:04.606Z,101038.00
2022-08-07T02:20:05.371Z,101038.00
2022-08-07T02:20:25.450Z,101036.00
2022-08-07T02:21:00.265Z,101034.00
2022-08-07T02:21:56.666Z,101033.00
2022-08-07T02:22:25.863Z,101033.00
2022-08-07T02:23:00.858Z,101032.00
2022-08-07T02:23:35.794Z,101035.00
2022-08-07T02:24:10.777Z,101038.00
2022-08-07T02:24:55.778Z,101038.00
2022-08-07T02:26:10.939Z,101036.00
2022-08-07T02:26:32.537Z,101037.00
2022-08-07T02:26:49.694Z,101038.00
2022-08-07T02:27:26.924Z,101035.00
2022-08-07T02:28:07.908Z,101037.00
2022-08-07T02:28:46.117Z,101037.00
2022-08-07T02:29:22.610Z,101036.00
2022-08-07T02:29:57.752Z,101034.00
2022-08-07T02:30:32.468Z,101035.00
2022-08-07T02:31:18.762Z,101034.00
2022-08-07T02:31:49.299Z,101036.00
2022-08-07T02:32:30.065Z,101036.00
2022-08-07T02:33:09.570Z,101039.00
2022-08-07T02:34:11.190Z,101036.00
2022-08-07T02:34:26.631Z,101039.00
2022-08-07T02:35:03.333Z,101035.00
2022-08-07T02:36:28.943Z,101037.00
2022-08-07T02:36:29.498Z,101038.00
2022-08-07T02:37:01.823Z,101040.00
2022-08-07T02:37:44.093Z,101038.00
2022-08-07T02:38:19.062Z,101034.00
2022-08-07T02:39:00.427Z,101039.00
2022-08-07T02:39:43.495Z,101038.00
2022-08-07T02:40:30.695Z,101034.00
2022-08-07T02:40:56.134Z,101033.00
2022-08-07T02:41:37.210Z,101032.00
2022-08-07T02:42:16.290Z,101036.00
2022-08-07T02:42:52.157Z,101036.00
2022-08-07T02:43:27.572Z,101038.00
2022-08-07T02:44:02.315Z,101034.00
2022-08-07T02:44:39.725Z,101037.00
2022-08-07T02:46:00.249Z,101039.00
2022-08-07T02:46:02.528Z,101037.00
2022-08-07T02:46:46.875Z,101032.00
2022-08-07T02:47:19.724Z,101038.00
2022-08-07T02:48:01.560Z,101038.00
2022-08-07T02:48:36.577Z,101039.00
2022-08-07T02:49:55.621Z,101038.00
2022-08-07T02:49:57.466Z,101039.00
2022-08-07T02:50:33.779Z,101038.00
2022-08-07T02:51:29.017Z,101037.00
2022-08-07T02:51:52.288Z,101037.00
2022-08-07T02:52:32.003Z,101034.00
2022-08-07T02:53:06.996Z,101036.00
2022-08-07T02:53:47.668Z,101032.00
2022-08-07T02:54:25.293Z,101031.00
2022-08-07T02:55:01.019Z,101039.00
2022-08-07T02:56:04.054Z,101033.00
2022-08-07T02:56:21.628Z,101032.00
2022-08-07T02:56:56.700Z,101036.00
2022-08-07T02:57:34.970Z,101036.00
2022-08-07T02:58:11.451Z,101034.00
2022-08-07T02:58:47.318Z,101035.00
2022-08-07T02:59:24.111Z,101037.00
2022-08-07T03:00:05.164Z,101039.00
2022-08-07T03:00:46.599Z,101037.00
2022-08-07T03:01:35.815Z,101036.00
2022-08-07T03:02:04.266Z,101036.00
2022-08-07T03:02:51.977Z,101035.00
2022-08-07T03:03:22.638Z,101043.00
2022-08-07T03:03:57.464Z,101042.00
2022-08-07T03:04:37.074Z,101038.00
2022-08-07T03:05:12.274Z,101043.00
2022-08-07T03:05:51.874Z,101041.00
2022-08-07T03:06:33.056Z,101042.00
2022-08-07T03:07:10.609Z,101039.00
2022-08-07T03:08:07.780Z,101043.00
2022-08-07T03:08:29.165Z,101043.00
2022-08-07T03:09:05.971Z,101044.00
2022-08-07T03:09:44.447Z,101044.00
2022-08-07T03:10:20.226Z,101044.00
2022-08-07T03:10:59.186Z,101045.00
2022-08-07T03:11:38.688Z,101043.00
2022-08-07T03:12:22.555Z,101042.00
2022-08-07T03:12:54.097Z,101045.00
2022-08-07T03:13:30.357Z,101044.00
2022-08-07T03:14:09.948Z,101046.00
2022-08-07T03:14:48.455Z,101045.00
2022-08-07T03:15:30.198Z,101049.00
2022-08-07T03:16:03.947Z,101045.00
2022-08-07T03:16:38.678Z,101046.00
2022-08-07T03:17:13.398Z,101047.00
2022-08-07T03:17:53.679Z,101051.00
2022-08-07T03:18:35.008Z,101052.00
2022-08-07T03:19:13.711Z,101051.00
2022-08-07T03:19:54.937Z,101052.00
2022-08-07T03:20:28.622Z,101055.00
2022-08-07T03:21:03.368Z,101052.00
2022-08-07T03:21:38.091Z,101051.00
2022-08-07T03:22:19.299Z,101050.00
2022-08-07T03:22:56.048Z,101052.00
2022-08-07T03:23:33.854Z,101053.00
2022-08-07T03:24:18.349Z,101051.00
2022-08-07T03:24:52.533Z,101051.00
2022-08-07T03:25:27.252Z,101054.00
2022-08-07T03:26:06.863Z,101054.00
2022-08-07T03:26:57.819Z,101048.00
2022-08-07T03:27:30.278Z,101054.00
2022-08-07T03:28:37.661Z,101049.00
2022-08-07T03:28:45.284Z,101052.00
2022-08-07T03:29:22.244Z,101051.00
2022-08-07T03:29:56.985Z,101055.00
2022-08-07T03:30:31.719Z,101050.00
2022-08-07T03:31:06.445Z,101049.00
2022-08-07T03:31:49.790Z,101046.00
2022-08-07T03:32:24.807Z,101051.00
2022-08-07T03:33:02.006Z,101046.00
2022-08-07T03:33:40.094Z,101048.00
2022-08-07T03:34:18.525Z,101045.00
2022-08-07T03:35:00.838Z,101048.00
2022-08-07T03:35:43.691Z,101045.00
2022-08-07T03:36:15.997Z,101044.00
2022-08-07T03:36:50.737Z,101046.00
2022-08-07T03:37:27.729Z,101046.00
2022-08-07T03:38:04.797Z,101046.00
2022-08-07T03:38:39.578Z,101046.00
2022-08-07T03:39:59.402Z,101048.00
2022-08-07T03:40:07.388Z,101043.00
2022-08-07T03:40:40.242Z,101045.00
2022-08-07T03:41:20.969Z,101042.00
2022-08-07T03:42:00.730Z,101042.00
2022-08-07T03:42:35.539Z,101045.00
2022-08-07T03:43:14.649Z,101043.00
2022-08-07T03:43:56.909Z,101044.00
2022-08-07T03:44:34.201Z,101042.00
2022-08-07T03:45:09.391Z,101043.00
2022-08-07T03:45:48.460Z,101045.00
2022-08-07T03:46:23.363Z,101039.00
2022-08-07T03:47:10.735Z,101039.00
2022-08-07T03:47:47.678Z,101037.00
2022-08-07T03:48:20.953Z,101036.00
2022-08-07T03:49:02.485Z,101039.00
2022-08-07T03:49:37.324Z,101040.00
2022-08-07T03:50:12.852Z,101040.00
2022-08-07T03:50:52.201Z,101040.00
2022-08-07T03:51:30.809Z,101038.00
2022-08-07T03:52:08.373Z,101041.00
2022-08-07T03:52:48.004Z,101033.00
2022-08-07T03:54:00.596Z,101040.00
2022-08-07T03:54:35.172Z,101041.00
2022-08-07T03:54:55.098Z,101043.00
2022-08-07T03:55:23.280Z,101037.00
2022-08-07T03:56:04.445Z,101042.00
2022-08-07T03:56:37.595Z,101044.00
2022-08-07T03:58:34.046Z,101043.00
2022-08-07T03:58:34.144Z,101044.00
2022-08-07T03:59:07.889Z,101043.00
2022-08-07T03:59:13.054Z,101043.00
2022-08-07T04:00:02.536Z,101039.00
2022-08-07T04:00:33.878Z,101042.00
2022-08-07T04:01:11.324Z,101045.00
2022-08-07T04:01:46.381Z,101046.00
2022-08-07T04:02:23.608Z,101042.00
2022-08-07T04:02:59.652Z,101044.00
2022-08-07T04:03:53.192Z,101042.00
2022-08-07T04:04:22.218Z,101044.00
2022-08-07T04:04:59.212Z,101043.00
2022-08-07T04:05:40.245Z,101045.00
2022-08-07T04:06:37.026Z,101045.00
2022-08-07T04:06:53.138Z,101044.00
2022-08-07T04:07:36.241Z,101040.00
2022-08-07T04:08:08.350Z,101045.00
2022-08-07T04:08:45.759Z,101044.00
2022-08-07T04:09:22.990Z,101041.00
2022-08-07T04:09:58.289Z,101046.00
2022-08-07T04:10:39.241Z,101044.00
2022-08-07T04:12:23.691Z,101045.00
2022-08-07T04:12:27.824Z,101047.00
2022-08-07T04:12:37.393Z,101044.00
2022-08-07T04:13:15.070Z,101042.00
2022-08-07T04:14:11.009Z,101044.00
2022-08-07T04:14:37.851Z,101044.00
2022-08-07T04:15:10.523Z,101044.00
2022-08-07T04:15:48.930Z,101040.00
2022-08-07T04:16:30.819Z,101041.00
2022-08-07T04:17:03.835Z,101041.00
2022-08-07T04:18:57.735Z,101042.00
2022-08-07T04:18:58.619Z,101042.00
2022-08-07T04:19:04.120Z,101039.00
2022-08-07T04:19:52.139Z,101044.00
2022-08-07T04:20:17.024Z,101048.00
2022-08-07T04:20:55.737Z,101048.00
2022-08-07T04:21:33.367Z,101047.00
2022-08-07T04:22:13.357Z,101048.00
2022-08-07T04:22:53.346Z,101047.00
2022-08-07T04:23:43.639Z,101050.00
2022-08-07T04:24:08.031Z,101051.00
2022-08-07T04:24:45.027Z,101050.00
2022-08-07T04:25:22.227Z,101050.00
2022-08-07T04:26:01.257Z,101048.00
2022-08-07T04:26:38.408Z,101050.00
2022-08-07T04:27:36.001Z,101050.00
2022-08-07T04:27:59.117Z,101045.00
2022-08-07T04:28:34.300Z,101048.00
2022-08-07T04:29:10.841Z,101047.00
2022-08-07T04:29:57.176Z,101049.00
2022-08-07T04:30:39.360Z,101049.00
2022-08-07T04:31:06.489Z,101044.00
2022-08-07T04:32:03.367Z,101048.00
2022-08-07T04:32:33.901Z,101048.00
2022-08-07T04:33:03.361Z,101049.00
2022-08-07T04:33:42.189Z,101049.00
2022-08-07T04:34:17.448Z,101049.00
2022-08-07T04:34:59.505Z,101048.00
2022-08-07T04:35:36.722Z,101047.00
2022-08-07T04:36:13.162Z,101049.00
2022-08-07T04:36:48.731Z,101049.00
2022-08-07T04:37:24.327Z,101050.00
2022-08-07T04:38:06.936Z,101049.00
2022-08-07T04:38:42.196Z,101048.00
2022-08-07T04:39:17.664Z,101054.00
2022-08-07T04:39:54.374Z,101048.00
2022-08-07T04:40:32.358Z,101053.00
2022-08-07T04:41:08.674Z,101051.00
2022-08-07T04:41:50.427Z,101050.00
2022-08-07T04:42:28.738Z,101048.00
2022-08-07T04:43:05.316Z,101050.00
2022-08-07T04:44:09.729Z,101050.00
2022-08-07T04:44:23.445Z,101050.00
2022-08-07T04:45:03.105Z,101050.00
2022-08-07T04:45:57.940Z,101052.00
2022-08-07T04:46:20.113Z,101049.00
2022-08-07T04:47:04.449Z,101052.00
2022-08-07T04:47:56.960Z,101053.00
2022-08-07T04:48:18.190Z,101050.00
2022-08-07T04:48:53.769Z,101049.00
2022-08-07T04:49:30.228Z,101053.00
2022-08-07T04:50:10.995Z,101052.00
2022-08-07T04:50:52.941Z,101051.00
2022-08-07T04:51:27.061Z,101054.00
2022-08-07T04:52:03.881Z,101053.00
2022-08-07T04:52:51.352Z,101056.00
2022-08-07T04:53:39.987Z,101053.00
2022-08-07T04:54:06.615Z,101056.00
2022-08-07T04:54:40.909Z,101056.00
2022-08-07T04:58:07.741Z,101058.00
2022-08-07T04:58:09.809Z,101058.00
2022-08-07T04:58:10.890Z,101055.00
2022-08-07T04:58:12.790Z,101053.00
2022-08-07T04:58:13.157Z,101056.00
2022-08-07T04:59:15.851Z,101057.00
2022-08-07T05:00:07.984Z,101059.00
2022-08-07T05:00:12.686Z,101061.00
2022-08-07T05:00:36.337Z,101061.00
2022-08-07T05:01:15.845Z,101060.00
2022-08-07T05:01:54.583Z,101053.00
2022-08-07T05:02:31.984Z,101058.00
2022-08-07T05:03:31.081Z,101058.00
2022-08-07T05:04:06.816Z,101060.00
2022-08-07T05:04:26.372Z,101059.00
2022-08-07T05:05:01.123Z,101061.00
2022-08-07T05:05:52.685Z,101054.00
2022-08-07T05:06:19.338Z,101064.00
2022-08-07T05:06:54.897Z,101060.00
2022-08-07T05:07:36.563Z,101063.00
2022-08-07T05:08:11.434Z,101063.00
2022-08-07T05:09:00.731Z,101061.00
2022-08-07T05:09:45.745Z,101060.00
2022-08-07T05:10:08.356Z,101062.00
2022-08-07T05:10:46.561Z,101061.00
2022-08-07T05:11:26.165Z,101056.00
2022-08-07T05:12:02.232Z,101057.00
2022-08-07T05:12:39.400Z,101061.00
2022-08-07T05:14:54.548Z,101053.00
2022-08-07T05:14:55.448Z,101050.00
2022-08-07T05:14:55.860Z,101053.00
2022-08-07T05:15:21.572Z,101058.00
2022-08-07T05:15:57.041Z,101054.00
2022-08-07T05:16:32.269Z,101055.00
2022-08-07T05:17:12.022Z,101053.00
2022-08-07T05:17:52.156Z,101051.00
2022-08-07T05:18:30.093Z,101053.00
2022-08-07T05:19:06.811Z,101055.00
2022-08-07T05:19:44.698Z,101057.00
2022-08-07T05:20:20.103Z,101060.00
2022-08-07T05:20:56.935Z,101062.00
2022-08-07T05:21:59.327Z,101059.00
2022-08-07T05:22:12.200Z,101057.00
2022-08-07T05:22:50.432Z,101057.00
2022-08-07T05:23:29.925Z,101061.00
2022-08-07T05:24:04.962Z,101060.00
2022-08-07T05:24:40.538Z,101059.00
2022-08-07T05:25:25.659Z,101060.00
2022-08-07T05:26:13.702Z,101058.00
2022-08-07T05:26:34.713Z,101059.00
2022-08-07T05:28:02.974Z,101064.00
2022-08-07T05:28:03.225Z,101062.00
2022-08-07T05:28:33.761Z,101065.00
2022-08-07T05:29:10.674Z,101065.00
2022-08-07T05:29:51.172Z,101066.00
2022-08-07T05:30:30.111Z,101068.00
2022-08-07T05:31:04.764Z,101067.00
2022-08-07T05:31:51.136Z,101068.00
2022-08-07T05:32:23.235Z,101071.00
2022-08-07T05:32:58.565Z,101071.00
2022-08-07T05:33:35.322Z,101078.00
2022-08-07T05:34:12.033Z,101072.00
2022-08-07T05:34:47.876Z,101074.00
2022-08-07T05:35:33.218Z,101076.00
2022-08-07T05:36:04.066Z,101073.00
2022-08-07T05:36:40.186Z,101079.00
2022-08-07T05:37:16.497Z,101075.00
2022-08-07T05:38:08.838Z,101076.00
2022-08-07T05:39:00.142Z,101078.00
2022-08-07T05:40:14.377Z,101077.00
2022-08-07T05:40:17.404Z,101075.00
2022-08-07T05:40:50.329Z,101076.00
2022-08-07T05:41:21.820Z,101077.00
2022-08-07T05:42:00.467Z,101079.00
2022-08-07T05:42:39.173Z,101073.00
2022-08-07T05:43:15.990Z,101079.00
2022-08-07T05:44:08.806Z,101074.00
2022-08-07T05:44:33.881Z,101077.00
2022-08-07T05:45:26.327Z,101076.00
2022-08-07T05:45:48.606Z,101077.00
2022-08-07T05:46:23.311Z,101079.00
2022-08-07T05:47:17.797Z,101078.00
2022-08-07T05:48:01.689Z,101082.00
2022-08-07T05:48:26.308Z,101077.00
2022-08-07T05:49:01.450Z,101081.00
2022-08-07T05:49:42.572Z,101081.00
2022-08-07T05:50:19.014Z,101080.00
2022-08-07T05:50:53.742Z,101081.00
2022-08-07T05:51:31.715Z,101083.00
2022-08-07T05:52:07.943Z,101082.00
2022-08-07T05:52:46.201Z,101084.00
2022-08-07T05:54:09.371Z,101085.00
2022-08-07T05:54:12.424Z,101087.00
2022-08-07T05:54:44.658Z,101090.00
2022-08-07T05:55:21.844Z,101086.00
2022-08-07T05:56:03.720Z,101089.00
2022-08-07T05:56:38.165Z,101089.00
2022-08-07T05:57:16.915Z,101083.00
2022-08-07T05:57:51.825Z,101084.00
2022-08-07T05:58:36.724Z,101086.00
2022-08-07T05:59:08.076Z,101085.00
2022-08-07T05:59:55.996Z,101082.00
2022-08-07T06:00:23.597Z,101083.00
2022-08-07T06:00:59.308Z,101078.00
2022-08-07T06:01:40.440Z,101081.00
2022-08-07T06:02:18.791Z,101078.00
2022-08-07T06:02:54.767Z,101082.00
2022-08-07T06:03:53.497Z,101080.00
2022-08-07T06:04:11.088Z,101081.00
2022-08-07T06:04:45.818Z,101081.00
2022-08-07T06:05:28.156Z,101081.00
2022-08-07T06:06:03.177Z,101085.00
2022-08-07T06:06:38.878Z,101085.00
2022-08-07T06:07:22.946Z,101081.00
2022-08-07T06:08:14.571Z,101082.00
2022-08-07T06:08:42.379Z,101085.00
2022-08-07T06:09:18.251Z,101085.00
2022-08-07T06:10:05.669Z,101087.00
2022-08-07T06:10:36.920Z,101084.00
2022-08-07T06:11:13.102Z,101083.00
2022-08-07T06:11:47.853Z,101083.00
2022-08-07T06:12:27.869Z,101083.00
2022-08-07T06:13:02.417Z,101084.00
2022-08-07T06:14:12.538Z,101084.00
2022-08-07T06:14:21.314Z,101087.00
2022-08-07T06:14:58.770Z,101079.00
2022-08-07T06:15:39.116Z,101082.00
2022-08-07T06:16:17.253Z,101079.00
2022-08-07T06:16:55.987Z,101083.00
2022-08-07T06:17:31.963Z,101083.00
2022-08-07T06:18:10.934Z,101082.00
2022-08-07T06:18:51.512Z,101085.00
2022-08-07T06:19:47.796Z,101089.00
2022-08-07T06:20:06.114Z,101086.00
2022-08-07T06:20:50.835Z,101084.00
2022-08-07T06:22:15.331Z,101088.00
2022-08-07T06:22:16.648Z,101089.00
2022-08-07T06:22:50.596Z,101088.00
2022-08-07T06:24:37.792Z,101089.00
2022-08-07T06:24:38.124Z,101085.00
2022-08-07T06:24:57.028Z,101087.00
2022-08-07T06:25:28.887Z,101091.00
2022-08-07T06:26:08.506Z,101084.00
2022-08-07T06:26:45.847Z,101086.00
2022-08-07T06:27:22.702Z,101087.00
2022-08-07T06:28:02.940Z,101090.00
2022-08-07T06:28:39.622Z,101086.00
2022-08-07T06:29:14.748Z,101090.00
2022-08-07T06:29:49.479Z,101090.00
2022-08-07T06:30:35.770Z,101091.00
2022-08-07T06:31:06.681Z,101093.00
2022-08-07T06:31:49.621Z,101088.00
2022-08-07T06:32:22.719Z,101092.00
2022-08-07T06:33:02.319Z,101090.00
2022-08-07T06:33:40.519Z,101088.00
2022-08-07T06:34:20.414Z,101088.00
2022-08-07T06:34:55.600Z,101092.00
2022-08-07T06:35:45.692Z,101090.00
2022-08-07T06:36:13.928Z,101089.00
2022-08-07T06:36:52.102Z,101088.00
2022-08-07T06:37:43.669Z,101086.00
2022-08-07T06:38:10.067Z,101090.00
2022-08-07T06:38:58.523Z,101088.00
2022-08-07T06:40:16.096Z,101087.00
2022-08-07T06:40:16.345Z,101087.00
2022-08-07T06:40:47.365Z,101086.00
2022-08-07T06:42:02.628Z,101089.00
2022-08-07T06:42:03.834Z,101086.00
2022-08-07T06:42:40.334Z,101087.00
2022-08-07T06:43:21.652Z,101091.00
2022-08-07T06:44:01.326Z,101088.00
2022-08-07T06:44:39.555Z,101087.00
2022-08-07T06:45:17.900Z,101085.00
2022-08-07T06:46:00.129Z,101089.00
2022-08-07T06:46:35.517Z,101083.00
2022-08-07T06:47:15.356Z,101084.00
2022-08-07T06:47:58.968Z,101080.00
2022-08-07T06:48:31.206Z,101081.00
2022-08-07T06:49:07.756Z,101079.00
2022-08-07T06:49:51.004Z,101080.00
2022-08-07T06:50:26.727Z,101078.00
2022-08-07T06:51:08.185Z,101076.00
2022-08-07T06:51:50.003Z,101075.00
2022-08-07T06:52:31.313Z,101075.00
2022-08-07T06:53:06.968Z,101075.00
2022-08-07T06:55:30.154Z,101072.00
2022-08-07T06:55:31.196Z,101073.00
2022-08-07T06:55:34.340Z,101070.00
2022-08-07T06:56:01.176Z,101075.00
2022-08-07T06:56:27.968Z,101072.00
2022-08-07T06:57:03.102Z,101072.00
2022-08-07T06:57:43.659Z,101067.00
2022-08-07T06:58:17.420Z,101068.00
2022-08-07T07:00:11.707Z,101068.00
2022-08-07T07:00:12.994Z,101066.00
2022-08-07T07:00:17.911Z,101068.00
2022-08-07T07:00:54.534Z,101070.00
2022-08-07T07:01:33.245Z,101070.00
2022-08-07T07:02:11.311Z,101073.00
2022-08-07T07:02:48.510Z,101069.00
2022-08-07T07:03:26.296Z,101066.00
2022-08-07T07:04:28.018Z,101068.00
2022-08-07T07:04:43.565Z,101065.00
2022-08-07T07:06:05.198Z,101064.00
2022-08-07T07:06:06.313Z,101064.00
2022-08-07T07:06:57.588Z,101062.00
2022-08-07T07:08:00.294Z,101065.00
2022-08-07T07:08:04.142Z,101062.00
2022-08-07T07:08:46.675Z,101060.00
2022-08-07T07:09:22.998Z,101059.00
2022-08-07T07:09:58.196Z,101059.00
2022-08-07T07:10:32.933Z,101060.00
2022-08-07T07:11:14.076Z,101059.00
2022-08-07T07:12:07.553Z,101057.00
2022-08-07T07:12:31.288Z,101060.00
2022-08-07T07:13:07.486Z,101054.00
2022-08-07T07:13:57.531Z,101057.00
2022-08-07T07:14:24.347Z,101058.00
2022-08-07T07:14:59.496Z,101058.00